sensor_id;sensor_type;location;lat;lon;timestamp;P1;durP1;ratioP1;P2;durP2;ratioP2
82479;SDS011;72105;46.112;12.902;2023-11-21T00:01:54;10.27;;;6.43;;
82479;SDS011;72105;46.112;12.902;2023-11-21T00:04:20;9.30;;;6.35;;
82479;SDS011;72105;46.112;12.902;2023-11-21T00:06:46;10.52;;;6.55;;
82479;SDS011;72105;46.112;12.902;2023-11-21T00:09:13;9.65;;;6.00;;
82479;SDS011;72105;46.112;12.902;2023-11-21T00:11:40;7.70;;;5.63;;
82479;SDS011;72105;46.112;12.902;2023-11-21T00:14:07;8.98;;;6.38;;
82479;SDS011;72105;46.112;12.902;2023-11-21T00:16:33;9.30;;;6.30;;
82479;SDS011;72105;46.112;12.902;2023-11-21T00:18:59;10.00;;;6.43;;
82479;SDS011;72105;46.112;12.902;2023-11-21T00:21:25;8.20;;;6.50;;
82479;SDS011;72105;46.112;12.902;2023-11-21T00:23:52;10.38;;;6.43;;
82479;SDS011;72105;46.112;12.902;2023-11-21T00:26:18;11.93;;;6.45;;
82479;SDS011;72105;46.112;12.902;2023-11-21T00:28:44;9.88;;;6.40;;
82479;SDS011;72105;46.112;12.902;2023-11-21T00:31:10;10.13;;;6.80;;
82479;SDS011;72105;46.112;12.902;2023-11-21T00:33:36;9.63;;;6.22;;
82479;SDS011;72105;46.112;12.902;2023-11-21T00:36:03;8.25;;;6.45;;
82479;SDS011;72105;46.112;12.902;2023-11-21T00:38:29;10.45;;;7.05;;
82479;SDS011;72105;46.112;12.902;2023-11-21T00:40:55;9.40;;;6.93;;
82479;SDS011;72105;46.112;12.902;2023-11-21T00:43:24;10.50;;;6.75;;
82479;SDS011;72105;46.112;12.902;2023-11-21T00:45:50;9.60;;;7.65;;
82479;SDS011;72105;46.112;12.902;2023-11-21T00:48:16;10.48;;;6.57;;
82479;SDS011;72105;46.112;12.902;2023-11-21T00:50:43;7.72;;;5.80;;
82479;SDS011;72105;46.112;12.902;2023-11-21T00:53:09;8.82;;;6.00;;
82479;SDS011;72105;46.112;12.902;2023-11-21T00:55:36;8.23;;;5.28;;
82479;SDS011;72105;46.112;12.902;2023-11-21T00:58:05;6.93;;;5.55;;
82479;SDS011;72105;46.112;12.902;2023-11-21T01:00:32;7.28;;;5.60;;
82479;SDS011;72105;46.112;12.902;2023-11-21T01:02:58;7.28;;;5.28;;
82479;SDS011;72105;46.112;12.902;2023-11-21T01:05:24;6.43;;;5.10;;
82479;SDS011;72105;46.112;12.902;2023-11-21T01:07:51;10.90;;;6.78;;
82479;SDS011;72105;46.112;12.902;2023-11-21T01:10:18;11.50;;;7.43;;
82479;SDS011;72105;46.112;12.902;2023-11-21T01:12:44;9.20;;;5.72;;
82479;SDS011;72105;46.112;12.902;2023-11-21T01:15:10;8.50;;;5.47;;
82479;SDS011;72105;46.112;12.902;2023-11-21T01:17:37;8.88;;;6.28;;
82479;SDS011;72105;46.112;12.902;2023-11-21T01:20:04;9.60;;;6.95;;
82479;SDS011;72105;46.112;12.902;2023-11-21T01:22:36;6.05;;;5.40;;
82479;SDS011;72105;46.112;12.902;2023-11-21T01:25:02;7.72;;;5.80;;
82479;SDS011;72105;46.112;12.902;2023-11-21T01:27:32;8.20;;;5.10;;
82479;SDS011;72105;46.112;12.902;2023-11-21T01:29:58;8.15;;;5.57;;
82479;SDS011;72105;46.112;12.902;2023-11-21T01:32:24;10.77;;;5.50;;
82479;SDS011;72105;46.112;12.902;2023-11-21T01:34:50;8.60;;;6.00;;
82479;SDS011;72105;46.112;12.902;2023-11-21T01:37:16;7.47;;;5.05;;
82479;SDS011;72105;46.112;12.902;2023-11-21T01:39:43;8.48;;;5.45;;
82479;SDS011;72105;46.112;12.902;2023-11-21T01:42:09;9.32;;;5.70;;
82479;SDS011;72105;46.112;12.902;2023-11-21T01:44:37;10.63;;;6.35;;
82479;SDS011;72105;46.112;12.902;2023-11-21T01:47:04;19.80;;;10.60;;
82479;SDS011;72105;46.112;12.902;2023-11-21T01:49:34;7.78;;;5.35;;
82479;SDS011;72105;46.112;12.902;2023-11-21T01:52:00;7.63;;;5.20;;
82479;SDS011;72105;46.112;12.902;2023-11-21T01:54:27;7.10;;;5.07;;
82479;SDS011;72105;46.112;12.902;2023-11-21T01:56:57;8.05;;;5.20;;
82479;SDS011;72105;46.112;12.902;2023-11-21T01:59:27;6.93;;;5.15;;
82479;SDS011;72105;46.112;12.902;2023-11-21T02:01:56;6.75;;;4.80;;
82479;SDS011;72105;46.112;12.902;2023-11-21T02:04:22;6.75;;;4.93;;
82479;SDS011;72105;46.112;12.902;2023-11-21T02:06:48;5.22;;;4.22;;
82479;SDS011;72105;46.112;12.902;2023-11-21T02:09:16;9.10;;;5.88;;
82479;SDS011;72105;46.112;12.902;2023-11-21T02:11:42;7.60;;;4.72;;
82479;SDS011;72105;46.112;12.902;2023-11-21T02:14:09;6.57;;;4.60;;
82479;SDS011;72105;46.112;12.902;2023-11-21T02:16:36;6.40;;;4.53;;
82479;SDS011;72105;46.112;12.902;2023-11-21T02:19:03;11.88;;;5.75;;
82479;SDS011;72105;46.112;12.902;2023-11-21T02:21:34;5.50;;;4.32;;
82479;SDS011;72105;46.112;12.902;2023-11-21T02:24:01;5.95;;;4.57;;
82479;SDS011;72105;46.112;12.902;2023-11-21T02:26:27;6.82;;;4.65;;
82479;SDS011;72105;46.112;12.902;2023-11-21T02:28:53;7.15;;;4.63;;
82479;SDS011;72105;46.112;12.902;2023-11-21T02:31:19;5.95;;;4.32;;
82479;SDS011;72105;46.112;12.902;2023-11-21T02:33:45;6.05;;;4.18;;
82479;SDS011;72105;46.112;12.902;2023-11-21T02:36:12;8.80;;;5.22;;
82479;SDS011;72105;46.112;12.902;2023-11-21T02:38:38;7.88;;;5.25;;
82479;SDS011;72105;46.112;12.902;2023-11-21T02:41:05;7.07;;;5.70;;
82479;SDS011;72105;46.112;12.902;2023-11-21T02:43:31;9.40;;;5.55;;
82479;SDS011;72105;46.112;12.902;2023-11-21T02:45:57;7.70;;;5.03;;
82479;SDS011;72105;46.112;12.902;2023-11-21T02:48:23;7.45;;;4.88;;
82479;SDS011;72105;46.112;12.902;2023-11-21T02:50:50;7.78;;;4.43;;
82479;SDS011;72105;46.112;12.902;2023-11-21T02:53:18;7.05;;;4.43;;
82479;SDS011;72105;46.112;12.902;2023-11-21T02:55:44;6.63;;;4.82;;
82479;SDS011;72105;46.112;12.902;2023-11-21T02:58:10;6.40;;;4.85;;
82479;SDS011;72105;46.112;12.902;2023-11-21T03:00:36;7.75;;;5.07;;
82479;SDS011;72105;46.112;12.902;2023-11-21T03:03:05;7.55;;;5.03;;
82479;SDS011;72105;46.112;12.902;2023-11-21T03:05:31;6.18;;;5.03;;
82479;SDS011;72105;46.112;12.902;2023-11-21T03:08:00;7.78;;;5.43;;
82479;SDS011;72105;46.112;12.902;2023-11-21T03:10:26;7.20;;;5.40;;
82479;SDS011;72105;46.112;12.902;2023-11-21T03:12:52;7.53;;;5.10;;
82479;SDS011;72105;46.112;12.902;2023-11-21T03:15:18;6.70;;;4.68;;
82479;SDS011;72105;46.112;12.902;2023-11-21T03:17:44;6.03;;;4.63;;
82479;SDS011;72105;46.112;12.902;2023-11-21T03:20:11;6.40;;;4.35;;
82479;SDS011;72105;46.112;12.902;2023-11-21T03:22:37;5.78;;;4.35;;
82479;SDS011;72105;46.112;12.902;2023-11-21T03:25:04;7.35;;;4.75;;
82479;SDS011;72105;46.112;12.902;2023-11-21T03:27:36;9.60;;;5.47;;
82479;SDS011;72105;46.112;12.902;2023-11-21T03:30:07;6.72;;;5.00;;
82479;SDS011;72105;46.112;12.902;2023-11-21T03:32:33;8.68;;;5.45;;
82479;SDS011;72105;46.112;12.902;2023-11-21T03:35:00;7.03;;;4.75;;
82479;SDS011;72105;46.112;12.902;2023-11-21T03:37:27;6.97;;;4.53;;
82479;SDS011;72105;46.112;12.902;2023-11-21T03:39:54;7.60;;;4.82;;
82479;SDS011;72105;46.112;12.902;2023-11-21T03:42:20;7.85;;;5.72;;
82479;SDS011;72105;46.112;12.902;2023-11-21T03:44:46;6.82;;;4.80;;
82479;SDS011;72105;46.112;12.902;2023-11-21T03:47:12;7.38;;;5.50;;
82479;SDS011;72105;46.112;12.902;2023-11-21T03:49:38;7.93;;;5.55;;
82479;SDS011;72105;46.112;12.902;2023-11-21T03:52:05;7.47;;;4.97;;
82479;SDS011;72105;46.112;12.902;2023-11-21T03:54:32;7.43;;;5.53;;
82479;SDS011;72105;46.112;12.902;2023-11-21T03:56:59;6.78;;;5.00;;
82479;SDS011;72105;46.112;12.902;2023-11-21T03:59:25;7.35;;;4.90;;
82479;SDS011;72105;46.112;12.902;2023-11-21T04:01:51;5.65;;;4.68;;
82479;SDS011;72105;46.112;12.902;2023-11-21T04:04:17;7.53;;;5.30;;
82479;SDS011;72105;46.112;12.902;2023-11-21T04:06:44;7.25;;;5.63;;
82479;SDS011;72105;46.112;12.902;2023-11-21T04:09:10;6.65;;;4.43;;
82479;SDS011;72105;46.112;12.902;2023-11-21T04:11:37;7.05;;;5.47;;
82479;SDS011;72105;46.112;12.902;2023-11-21T04:14:03;6.15;;;4.95;;
82479;SDS011;72105;46.112;12.902;2023-11-21T04:16:29;7.13;;;5.38;;
82479;SDS011;72105;46.112;12.902;2023-11-21T04:18:56;8.80;;;5.60;;
82479;SDS011;72105;46.112;12.902;2023-11-21T04:21:22;6.43;;;4.57;;
82479;SDS011;72105;46.112;12.902;2023-11-21T04:23:49;6.07;;;4.40;;
82479;SDS011;72105;46.112;12.902;2023-11-21T04:26:15;7.10;;;4.60;;
82479;SDS011;72105;46.112;12.902;2023-11-21T04:28:41;7.15;;;4.65;;
82479;SDS011;72105;46.112;12.902;2023-11-21T04:31:07;8.05;;;4.50;;
82479;SDS011;72105;46.112;12.902;2023-11-21T04:33:33;6.80;;;4.97;;
82479;SDS011;72105;46.112;12.902;2023-11-21T04:35:59;8.50;;;5.22;;
82479;SDS011;72105;46.112;12.902;2023-11-21T04:38:25;7.15;;;5.30;;
82479;SDS011;72105;46.112;12.902;2023-11-21T04:40:51;11.20;;;6.03;;
82479;SDS011;72105;46.112;12.902;2023-11-21T04:43:18;7.43;;;5.32;;
82479;SDS011;72105;46.112;12.902;2023-11-21T04:45:44;6.13;;;4.65;;
82479;SDS011;72105;46.112;12.902;2023-11-21T04:48:10;6.63;;;4.60;;
82479;SDS011;72105;46.112;12.902;2023-11-21T04:50:36;6.93;;;4.22;;
82479;SDS011;72105;46.112;12.902;2023-11-21T04:53:02;5.20;;;3.88;;
82479;SDS011;72105;46.112;12.902;2023-11-21T04:55:28;4.65;;;3.65;;
82479;SDS011;72105;46.112;12.902;2023-11-21T04:57:54;8.10;;;4.32;;
82479;SDS011;72105;46.112;12.902;2023-11-21T05:00:20;5.60;;;4.38;;
82479;SDS011;72105;46.112;12.902;2023-11-21T05:02:46;3.83;;;3.25;;
82479;SDS011;72105;46.112;12.902;2023-11-21T05:05:13;10.00;;;3.72;;
82479;SDS011;72105;46.112;12.902;2023-11-21T05:07:39;5.22;;;3.75;;
82479;SDS011;72105;46.112;12.902;2023-11-21T05:10:06;5.93;;;3.60;;
82479;SDS011;72105;46.112;12.902;2023-11-21T05:12:35;6.93;;;3.40;;
82479;SDS011;72105;46.112;12.902;2023-11-21T05:15:03;5.13;;;3.65;;
82479;SDS011;72105;46.112;12.902;2023-11-21T05:17:33;5.75;;;3.85;;
82479;SDS011;72105;46.112;12.902;2023-11-21T05:20:00;5.38;;;3.78;;
82479;SDS011;72105;46.112;12.902;2023-11-21T05:22:29;5.35;;;3.50;;
82479;SDS011;72105;46.112;12.902;2023-11-21T05:24:55;5.53;;;3.58;;
82479;SDS011;72105;46.112;12.902;2023-11-21T05:27:21;5.43;;;3.78;;
82479;SDS011;72105;46.112;12.902;2023-11-21T05:29:47;5.80;;;3.92;;
82479;SDS011;72105;46.112;12.902;2023-11-21T05:32:13;6.05;;;3.58;;
82479;SDS011;72105;46.112;12.902;2023-11-21T05:34:39;5.80;;;3.88;;
82479;SDS011;72105;46.112;12.902;2023-11-21T05:37:06;5.82;;;4.00;;
82479;SDS011;72105;46.112;12.902;2023-11-21T05:39:32;6.65;;;4.13;;
82479;SDS011;72105;46.112;12.902;2023-11-21T05:41:58;4.85;;;3.38;;
82479;SDS011;72105;46.112;12.902;2023-11-21T05:44:25;4.85;;;3.80;;
82479;SDS011;72105;46.112;12.902;2023-11-21T05:46:51;6.47;;;3.60;;
82479;SDS011;72105;46.112;12.902;2023-11-21T05:49:17;5.35;;;3.38;;
82479;SDS011;72105;46.112;12.902;2023-11-21T05:51:46;7.53;;;4.55;;
82479;SDS011;72105;46.112;12.902;2023-11-21T05:54:13;6.03;;;3.45;;
82479;SDS011;72105;46.112;12.902;2023-11-21T05:56:39;5.82;;;3.78;;
82479;SDS011;72105;46.112;12.902;2023-11-21T05:59:05;5.30;;;3.60;;
82479;SDS011;72105;46.112;12.902;2023-11-21T06:01:31;4.25;;;3.30;;
82479;SDS011;72105;46.112;12.902;2023-11-21T06:03:58;4.90;;;3.42;;
82479;SDS011;72105;46.112;12.902;2023-11-21T06:06:24;3.95;;;3.42;;
82479;SDS011;72105;46.112;12.902;2023-11-21T06:08:51;6.13;;;3.38;;
82479;SDS011;72105;46.112;12.902;2023-11-21T06:11:17;7.18;;;3.50;;
82479;SDS011;72105;46.112;12.902;2023-11-21T06:13:43;7.00;;;3.53;;
82479;SDS011;72105;46.112;12.902;2023-11-21T06:16:10;5.30;;;2.75;;
82479;SDS011;72105;46.112;12.902;2023-11-21T06:18:38;4.20;;;2.95;;
82479;SDS011;72105;46.112;12.902;2023-11-21T06:21:05;3.22;;;2.15;;
82479;SDS011;72105;46.112;12.902;2023-11-21T06:23:31;1.95;;;1.67;;
82479;SDS011;72105;46.112;12.902;2023-11-21T06:25:57;3.25;;;1.92;;
82479;SDS011;72105;46.112;12.902;2023-11-21T06:28:23;1.50;;;1.40;;
82479;SDS011;72105;46.112;12.902;2023-11-21T06:30:49;2.85;;;1.67;;
82479;SDS011;72105;46.112;12.902;2023-11-21T06:33:15;1.25;;;1.05;;
82479;SDS011;72105;46.112;12.902;2023-11-21T06:35:41;1.55;;;1.13;;
82479;SDS011;72105;46.112;12.902;2023-11-21T06:38:08;1.73;;;1.17;;
82479;SDS011;72105;46.112;12.902;2023-11-21T06:40:34;2.30;;;1.00;;
82479;SDS011;72105;46.112;12.902;2023-11-21T06:43:00;1.55;;;1.10;;
82479;SDS011;72105;46.112;12.902;2023-11-21T06:45:26;1.50;;;1.40;;
82479;SDS011;72105;46.112;12.902;2023-11-21T06:47:52;1.90;;;1.20;;
82479;SDS011;72105;46.112;12.902;2023-11-21T06:50:18;1.40;;;0.90;;
82479;SDS011;72105;46.112;12.902;2023-11-21T06:52:46;1.13;;;1.00;;
82479;SDS011;72105;46.112;12.902;2023-11-21T06:55:12;2.60;;;1.40;;
82479;SDS011;72105;46.112;12.902;2023-11-21T06:57:38;1.15;;;0.85;;
82479;SDS011;72105;46.112;12.902;2023-11-21T07:00:04;3.17;;;1.40;;
82479;SDS011;72105;46.112;12.902;2023-11-21T07:02:34;2.45;;;1.00;;
82479;SDS011;72105;46.112;12.902;2023-11-21T07:05:00;1.35;;;1.20;;
82479;SDS011;72105;46.112;12.902;2023-11-21T07:07:26;0.98;;;0.68;;
82479;SDS011;72105;46.112;12.902;2023-11-21T07:09:53;1.65;;;1.10;;
82479;SDS011;72105;46.112;12.902;2023-11-21T07:12:19;1.00;;;0.80;;
82479;SDS011;72105;46.112;12.902;2023-11-21T07:14:59;0.80;;;0.68;;
82479;SDS011;72105;46.112;12.902;2023-11-21T07:17:26;1.63;;;1.15;;
82479;SDS011;72105;46.112;12.902;2023-11-21T07:19:52;0.60;;;0.60;;
82479;SDS011;72105;46.112;12.902;2023-11-21T07:22:18;1.13;;;0.90;;
82479;SDS011;72105;46.112;12.902;2023-11-21T07:24:49;3.28;;;0.85;;
82479;SDS011;72105;46.112;12.902;2023-11-21T07:27:16;2.00;;;0.80;;
82479;SDS011;72105;46.112;12.902;2023-11-21T07:29:42;3.72;;;1.00;;
82479;SDS011;72105;46.112;12.902;2023-11-21T07:32:08;2.28;;;1.38;;
82479;SDS011;72105;46.112;12.902;2023-11-21T07:34:34;1.83;;;1.30;;
82479;SDS011;72105;46.112;12.902;2023-11-21T07:37:05;1.92;;;1.20;;
82479;SDS011;72105;46.112;12.902;2023-11-21T07:39:31;2.15;;;1.25;;
82479;SDS011;72105;46.112;12.902;2023-11-21T07:41:57;2.60;;;1.10;;
82479;SDS011;72105;46.112;12.902;2023-11-21T07:44:23;2.45;;;1.13;;
82479;SDS011;72105;46.112;12.902;2023-11-21T07:46:49;2.45;;;1.25;;
82479;SDS011;72105;46.112;12.902;2023-11-21T07:49:16;2.65;;;1.75;;
82479;SDS011;72105;46.112;12.902;2023-11-21T07:51:45;3.63;;;1.77;;
82479;SDS011;72105;46.112;12.902;2023-11-21T07:54:11;2.72;;;1.40;;
82479;SDS011;72105;46.112;12.902;2023-11-21T07:56:37;3.97;;;1.45;;
82479;SDS011;72105;46.112;12.902;2023-11-21T07:59:03;3.22;;;1.70;;
82479;SDS011;72105;46.112;12.902;2023-11-21T08:01:30;3.72;;;2.15;;
82479;SDS011;72105;46.112;12.902;2023-11-21T08:03:56;3.00;;;1.73;;
82479;SDS011;72105;46.112;12.902;2023-11-21T08:06:26;5.50;;;1.40;;
82479;SDS011;72105;46.112;12.902;2023-11-21T08:08:53;1.73;;;1.55;;
82479;SDS011;72105;46.112;12.902;2023-11-21T08:11:19;2.58;;;1.52;;
82479;SDS011;72105;46.112;12.902;2023-11-21T08:13:46;2.85;;;1.83;;
82479;SDS011;72105;46.112;12.902;2023-11-21T08:16:12;1.70;;;1.08;;
82479;SDS011;72105;46.112;12.902;2023-11-21T08:18:38;1.95;;;1.40;;
82479;SDS011;72105;46.112;12.902;2023-11-21T08:23:33;2.50;;;1.55;;
82479;SDS011;72105;46.112;12.902;2023-11-21T08:25:59;4.35;;;1.45;;
82479;SDS011;72105;46.112;12.902;2023-11-21T08:28:28;1.30;;;0.90;;
82479;SDS011;72105;46.112;12.902;2023-11-21T08:30:54;2.35;;;1.70;;
82479;SDS011;72105;46.112;12.902;2023-11-21T08:33:20;2.67;;;1.80;;
82479;SDS011;72105;46.112;12.902;2023-11-21T08:35:46;1.27;;;1.10;;
82479;SDS011;72105;46.112;12.902;2023-11-21T08:38:12;1.90;;;1.20;;
82479;SDS011;72105;46.112;12.902;2023-11-21T08:40:38;2.47;;;1.20;;
82479;SDS011;72105;46.112;12.902;2023-11-21T08:43:05;2.63;;;1.27;;
82479;SDS011;72105;46.112;12.902;2023-11-21T08:45:32;1.60;;;1.23;;
82479;SDS011;72105;46.112;12.902;2023-11-21T08:47:59;1.67;;;1.15;;
82479;SDS011;72105;46.112;12.902;2023-11-21T08:50:25;2.03;;;1.27;;
82479;SDS011;72105;46.112;12.902;2023-11-21T08:52:51;1.67;;;1.10;;
82479;SDS011;72105;46.112;12.902;2023-11-21T08:55:17;1.70;;;1.25;;
82479;SDS011;72105;46.112;12.902;2023-11-21T08:57:45;3.78;;;1.40;;
82479;SDS011;72105;46.112;12.902;2023-11-21T09:00:14;3.15;;;1.50;;
82479;SDS011;72105;46.112;12.902;2023-11-21T09:05:11;2.15;;;1.30;;
82479;SDS011;72105;46.112;12.902;2023-11-21T09:07:38;1.75;;;1.40;;
82479;SDS011;72105;46.112;12.902;2023-11-21T09:15:00;1.80;;;1.42;;
82479;SDS011;72105;46.112;12.902;2023-11-21T09:17:26;1.10;;;0.85;;
82479;SDS011;72105;46.112;12.902;2023-11-21T09:19:52;1.20;;;0.93;;
82479;SDS011;72105;46.112;12.902;2023-11-21T09:22:18;2.38;;;1.25;;
82479;SDS011;72105;46.112;12.902;2023-11-21T09:24:44;0.63;;;0.63;;
82479;SDS011;72105;46.112;12.902;2023-11-21T09:27:10;1.05;;;0.73;;
82479;SDS011;72105;46.112;12.902;2023-11-21T09:29:37;1.27;;;1.00;;
82479;SDS011;72105;46.112;12.902;2023-11-21T09:32:05;1.00;;;0.88;;
82479;SDS011;72105;46.112;12.902;2023-11-21T09:34:37;1.40;;;0.90;;
82479;SDS011;72105;46.112;12.902;2023-11-21T09:37:04;1.08;;;0.80;;
82479;SDS011;72105;46.112;12.902;2023-11-21T09:39:31;0.75;;;0.75;;
82479;SDS011;72105;46.112;12.902;2023-11-21T09:42:10;1.35;;;1.00;;
82479;SDS011;72105;46.112;12.902;2023-11-21T09:47:10;0.82;;;0.80;;
82479;SDS011;72105;46.112;12.902;2023-11-21T09:49:37;1.15;;;0.70;;
82479;SDS011;72105;46.112;12.902;2023-11-21T09:52:03;1.35;;;0.60;;
82479;SDS011;72105;46.112;12.902;2023-11-21T09:54:31;2.53;;;0.90;;
82479;SDS011;72105;46.112;12.902;2023-11-21T09:56:59;2.00;;;1.20;;
82479;SDS011;72105;46.112;12.902;2023-11-21T10:01:51;1.38;;;1.20;;
82479;SDS011;72105;46.112;12.902;2023-11-21T10:04:17;3.00;;;1.55;;
82479;SDS011;72105;46.112;12.902;2023-11-21T10:09:11;2.85;;;1.90;;
82479;SDS011;72105;46.112;12.902;2023-11-21T10:11:41;3.97;;;1.92;;
82479;SDS011;72105;46.112;12.902;2023-11-21T10:14:08;2.63;;;1.70;;
82479;SDS011;72105;46.112;12.902;2023-11-21T10:16:35;4.15;;;1.80;;
82479;SDS011;72105;46.112;12.902;2023-11-21T10:19:02;5.47;;;1.73;;
82479;SDS011;72105;46.112;12.902;2023-11-21T10:21:32;3.05;;;1.67;;
82479;SDS011;72105;46.112;12.902;2023-11-21T10:23:58;2.17;;;1.52;;
82479;SDS011;72105;46.112;12.902;2023-11-21T10:26:25;3.40;;;1.40;;
82479;SDS011;72105;46.112;12.902;2023-11-21T10:28:59;2.15;;;1.60;;
82479;SDS011;72105;46.112;12.902;2023-11-21T10:31:31;2.28;;;1.40;;
82479;SDS011;72105;46.112;12.902;2023-11-21T10:34:13;3.17;;;1.50;;
82479;SDS011;72105;46.112;12.902;2023-11-21T10:36:40;2.38;;;1.33;;
82479;SDS011;72105;46.112;12.902;2023-11-21T10:39:06;1.60;;;1.30;;
82479;SDS011;72105;46.112;12.902;2023-11-21T10:41:33;1.23;;;0.90;;
82479;SDS011;72105;46.112;12.902;2023-11-21T10:44:00;1.13;;;0.80;;
82479;SDS011;72105;46.112;12.902;2023-11-21T10:46:29;0.88;;;0.70;;
82479;SDS011;72105;46.112;12.902;2023-11-21T10:48:55;1.20;;;0.80;;
82479;SDS011;72105;46.112;12.902;2023-11-21T10:51:22;1.20;;;1.08;;
82479;SDS011;72105;46.112;12.902;2023-11-21T10:53:51;1.15;;;0.82;;
82479;SDS011;72105;46.112;12.902;2023-11-21T10:56:18;1.40;;;0.80;;
82479;SDS011;72105;46.112;12.902;2023-11-21T10:58:47;1.55;;;0.73;;
82479;SDS011;72105;46.112;12.902;2023-11-21T11:01:14;0.90;;;0.70;;
82479;SDS011;72105;46.112;12.902;2023-11-21T11:03:43;1.88;;;0.52;;
82479;SDS011;72105;46.112;12.902;2023-11-21T11:06:10;0.65;;;0.65;;
82479;SDS011;72105;46.112;12.902;2023-11-21T11:08:39;0.68;;;0.55;;
82479;SDS011;72105;46.112;12.902;2023-11-21T11:11:05;1.30;;;0.60;;
82479;SDS011;72105;46.112;12.902;2023-11-21T11:13:32;0.68;;;0.68;;
82479;SDS011;72105;46.112;12.902;2023-11-21T11:15:59;0.50;;;0.50;;
82479;SDS011;72105;46.112;12.902;2023-11-21T11:18:32;1.10;;;0.90;;
82479;SDS011;72105;46.112;12.902;2023-11-21T11:21:43;1.00;;;0.70;;
82479;SDS011;72105;46.112;12.902;2023-11-21T11:26:36;2.08;;;0.90;;
82479;SDS011;72105;46.112;12.902;2023-11-21T11:29:26;1.15;;;0.65;;
82479;SDS011;72105;46.112;12.902;2023-11-21T11:34:54;1.50;;;0.90;;
82479;SDS011;72105;46.112;12.902;2023-11-21T11:37:22;1.42;;;0.85;;
82479;SDS011;72105;46.112;12.902;2023-11-21T11:39:49;2.78;;;1.27;;
82479;SDS011;72105;46.112;12.902;2023-11-21T11:42:16;1.75;;;1.13;;
82479;SDS011;72105;46.112;12.902;2023-11-21T11:47:14;0.80;;;0.70;;
82479;SDS011;72105;46.112;12.902;2023-11-21T11:52:44;1.42;;;1.02;;
82479;SDS011;72105;46.112;12.902;2023-11-21T11:55:11;1.88;;;1.10;;
82479;SDS011;72105;46.112;12.902;2023-11-21T11:57:39;2.50;;;1.27;;
82479;SDS011;72105;46.112;12.902;2023-11-21T12:00:12;1.30;;;0.82;;
82479;SDS011;72105;46.112;12.902;2023-11-21T12:02:42;0.50;;;0.50;;
82479;SDS011;72105;46.112;12.902;2023-11-21T12:05:14;0.80;;;0.40;;
82479;SDS011;72105;46.112;12.902;2023-11-21T12:10:16;1.45;;;0.60;;
82479;SDS011;72105;46.112;12.902;2023-11-21T12:12:47;2.63;;;1.10;;
82479;SDS011;72105;46.112;12.902;2023-11-21T12:15:14;3.35;;;2.15;;
82479;SDS011;72105;46.112;12.902;2023-11-21T12:17:43;4.28;;;1.90;;
82479;SDS011;72105;46.112;12.902;2023-11-21T12:20:10;3.00;;;1.50;;
82479;SDS011;72105;46.112;12.902;2023-11-21T12:22:43;0.90;;;0.65;;
82479;SDS011;72105;46.112;12.902;2023-11-21T12:25:09;0.43;;;0.38;;
82479;SDS011;72105;46.112;12.902;2023-11-21T12:27:41;0.65;;;0.50;;
82479;SDS011;72105;46.112;12.902;2023-11-21T12:30:07;0.40;;;0.35;;
82479;SDS011;72105;46.112;12.902;2023-11-21T12:32:38;1.02;;;0.70;;
82479;SDS011;72105;46.112;12.902;2023-11-21T12:35:05;0.50;;;0.50;;
82479;SDS011;72105;46.112;12.902;2023-11-21T12:37:31;0.55;;;0.50;;
82479;SDS011;72105;46.112;12.902;2023-11-21T12:39:58;0.80;;;0.55;;
82479;SDS011;72105;46.112;12.902;2023-11-21T12:42:24;0.77;;;0.65;;
82479;SDS011;72105;46.112;12.902;2023-11-21T12:45:36;1.13;;;0.80;;
82479;SDS011;72105;46.112;12.902;2023-11-21T12:47:40;1.65;;;0.90;;
82479;SDS011;72105;46.112;12.902;2023-11-21T12:50:06;0.60;;;0.60;;
82479;SDS011;72105;46.112;12.902;2023-11-21T12:52:39;1.17;;;0.90;;
82479;SDS011;72105;46.112;12.902;2023-11-21T12:55:05;1.77;;;1.20;;
82479;SDS011;72105;46.112;12.902;2023-11-21T12:57:33;1.73;;;1.10;;
82479;SDS011;72105;46.112;12.902;2023-11-21T13:00:00;1.88;;;0.75;;
82479;SDS011;72105;46.112;12.902;2023-11-21T13:02:36;1.10;;;1.00;;
82479;SDS011;72105;46.112;12.902;2023-11-21T13:05:03;2.40;;;1.58;;
82479;SDS011;72105;46.112;12.902;2023-11-21T13:07:41;1.92;;;1.40;;
82479;SDS011;72105;46.112;12.902;2023-11-21T13:10:12;1.92;;;1.02;;
82479;SDS011;72105;46.112;12.902;2023-11-21T13:12:45;1.85;;;1.00;;
82479;SDS011;72105;46.112;12.902;2023-11-21T13:15:16;1.40;;;0.77;;
82479;SDS011;72105;46.112;12.902;2023-11-21T13:17:46;1.38;;;1.08;;
82479;SDS011;72105;46.112;12.902;2023-11-21T13:20:13;0.70;;;0.70;;
82479;SDS011;72105;46.112;12.902;2023-11-21T13:25:14;0.90;;;0.80;;
82479;SDS011;72105;46.112;12.902;2023-11-21T13:27:42;1.27;;;0.95;;
82479;SDS011;72105;46.112;12.902;2023-11-21T13:30:09;1.65;;;1.10;;
82479;SDS011;72105;46.112;12.902;2023-11-21T13:32:36;0.90;;;0.70;;
82479;SDS011;72105;46.112;12.902;2023-11-21T13:35:02;1.00;;;0.80;;
82479;SDS011;72105;46.112;12.902;2023-11-21T13:37:33;2.25;;;1.50;;
82479;SDS011;72105;46.112;12.902;2023-11-21T13:39:59;1.48;;;1.15;;
82479;SDS011;72105;46.112;12.902;2023-11-21T13:42:34;1.55;;;1.30;;
82479;SDS011;72105;46.112;12.902;2023-11-21T13:45:01;1.88;;;1.45;;
82479;SDS011;72105;46.112;12.902;2023-11-21T13:47:28;1.77;;;1.50;;
82479;SDS011;72105;46.112;12.902;2023-11-21T13:49:56;1.95;;;1.10;;
82479;SDS011;72105;46.112;12.902;2023-11-21T13:52:22;1.20;;;1.05;;
82479;SDS011;72105;46.112;12.902;2023-11-21T13:54:52;3.03;;;1.70;;
82479;SDS011;72105;46.112;12.902;2023-11-21T13:57:18;2.20;;;1.40;;
82479;SDS011;72105;46.112;12.902;2023-11-21T13:59:45;2.17;;;1.20;;
82479;SDS011;72105;46.112;12.902;2023-11-21T14:02:11;1.70;;;1.27;;
82479;SDS011;72105;46.112;12.902;2023-11-21T14:04:43;2.22;;;1.42;;
82479;SDS011;72105;46.112;12.902;2023-11-21T14:07:20;2.00;;;1.50;;
82479;SDS011;72105;46.112;12.902;2023-11-21T14:09:51;1.83;;;1.20;;
82479;SDS011;72105;46.112;12.902;2023-11-21T14:12:18;1.05;;;0.82;;
82479;SDS011;72105;46.112;12.902;2023-11-21T14:14:44;1.48;;;1.00;;
82479;SDS011;72105;46.112;12.902;2023-11-21T14:17:12;1.38;;;1.10;;
82479;SDS011;72105;46.112;12.902;2023-11-21T14:19:38;2.50;;;1.13;;
82479;SDS011;72105;46.112;12.902;2023-11-21T14:22:05;2.08;;;0.80;;
82479;SDS011;72105;46.112;12.902;2023-11-21T14:24:34;1.02;;;0.57;;
82479;SDS011;72105;46.112;12.902;2023-11-21T14:27:00;0.82;;;0.80;;
82479;SDS011;72105;46.112;12.902;2023-11-21T14:29:28;1.00;;;0.90;;
82479;SDS011;72105;46.112;12.902;2023-11-21T14:31:55;1.02;;;0.70;;
82479;SDS011;72105;46.112;12.902;2023-11-21T14:34:23;1.27;;;0.98;;
82479;SDS011;72105;46.112;12.902;2023-11-21T14:36:49;1.98;;;1.30;;
82479;SDS011;72105;46.112;12.902;2023-11-21T14:39:16;0.95;;;0.90;;
82479;SDS011;72105;46.112;12.902;2023-11-21T14:41:52;1.17;;;1.00;;
82479;SDS011;72105;46.112;12.902;2023-11-21T14:44:19;1.42;;;1.23;;
82479;SDS011;72105;46.112;12.902;2023-11-21T14:49:15;1.40;;;1.05;;
82479;SDS011;72105;46.112;12.902;2023-11-21T14:51:47;1.45;;;1.27;;
82479;SDS011;72105;46.112;12.902;2023-11-21T14:54:36;2.20;;;1.30;;
82479;SDS011;72105;46.112;12.902;2023-11-21T14:57:09;1.38;;;1.17;;
82479;SDS011;72105;46.112;12.902;2023-11-21T14:59:43;2.85;;;0.93;;
82479;SDS011;72105;46.112;12.902;2023-11-21T15:02:12;1.27;;;1.15;;
82479;SDS011;72105;46.112;12.902;2023-11-21T15:04:43;1.08;;;0.90;;
82479;SDS011;72105;46.112;12.902;2023-11-21T15:07:10;0.80;;;0.80;;
82479;SDS011;72105;46.112;12.902;2023-11-21T15:09:36;1.20;;;1.05;;
82479;SDS011;72105;46.112;12.902;2023-11-21T15:12:10;1.77;;;1.10;;